sensor_id;sensor_type;location;lat;lon;timestamp;temperature;humidity
10472;DHT22;5283;48.876;8.962;2022-11-23T00:01:43;0.60;99.90
10472;DHT22;5283;48.876;8.962;2022-11-23T00:04:11;0.50;99.90
10472;DHT22;5283;48.876;8.962;2022-11-23T00:06:39;0.40;99.90
10472;DHT22;5283;48.876;8.962;2022-11-23T00:09:08;0.40;99.90
10472;DHT22;5283;48.876;8.962;2022-11-23T00:11:35;0.50;99.90
10472;DHT22;5283;48.876;8.962;2022-11-23T00:14:02;0.50;99.90
10472;DHT22;5283;48.876;8.962;2022-11-23T00:16:29;0.70;99.90
10472;DHT22;5283;48.876;8.962;2022-11-23T00:18:59;0.90;99.90
10472;DHT22;5283;48.876;8.962;2022-11-23T00:21:28;1.20;99.90
10472;DHT22;5283;48.876;8.962;2022-11-23T00:23:56;1.40;99.90
10472;DHT22;5283;48.876;8.962;2022-11-23T00:26:23;1.70;99.90
10472;DHT22;5283;48.876;8.962;2022-11-23T00:28:49;1.90;99.90
10472;DHT22;5283;48.876;8.962;2022-11-23T00:31:18;2.00;99.90
10472;DHT22;5283;48.876;8.962;2022-11-23T00:33:50;2.30;99.90
10472;DHT22;5283;48.876;8.962;2022-11-23T00:36:17;2.60;99.90
10472;DHT22;5283;48.876;8.962;2022-11-23T00:38:44;2.90;99.90
10472;DHT22;5283;48.876;8.962;2022-11-23T00:41:13;3.10;99.90
10472;DHT22;5283;48.876;8.962;2022-11-23T00:43:41;3.30;99.90
10472;DHT22;5283;48.876;8.962;2022-11-23T00:46:09;3.50;99.90
10472;DHT22;5283;48.876;8.962;2022-11-23T00:48:37;3.50;99.90
10472;DHT22;5283;48.876;8.962;2022-11-23T00:51:07;3.50;99.90
10472;DHT22;5283;48.876;8.962;2022-11-23T00:53:34;3.40;99.90
10472;DHT22;5283;48.876;8.962;2022-11-23T00:56:01;3.40;99.90
10472;DHT22;5283;48.876;8.962;2022-11-23T00:58:29;3.50;99.90
10472;DHT22;5283;48.876;8.962;2022-11-23T01:01:11;3.50;99.90
10472;DHT22;5283;48.876;8.962;2022-11-23T01:03:40;3.40;99.90
10472;DHT22;5283;48.876;8.962;2022-11-23T01:06:13;3.40;99.90
10472;DHT22;5283;48.876;8.962;2022-11-23T01:08:41;3.30;99.90
10472;DHT22;5283;48.876;8.962;2022-11-23T01:11:10;3.20;99.90
10472;DHT22;5283;48.876;8.962;2022-11-23T01:13:38;3.20;99.90
10472;DHT22;5283;48.876;8.962;2022-11-23T01:16:13;3.30;99.90
10472;DHT22;5283;48.876;8.962;2022-11-23T01:18:43;3.20;99.90
10472;DHT22;5283;48.876;8.962;2022-11-23T01:21:09;3.10;99.90
10472;DHT22;5283;48.876;8.962;2022-11-23T01:23:36;3.00;99.90
10472;DHT22;5283;48.876;8.962;2022-11-23T01:26:04;2.90;99.90
10472;DHT22;5283;48.876;8.962;2022-11-23T01:28:32;2.70;99.90
10472;DHT22;5283;48.876;8.962;2022-11-23T01:31:07;2.50;99.90
10472;DHT22;5283;48.876;8.962;2022-11-23T01:33:34;2.20;99.90
10472;DHT22;5283;48.876;8.962;2022-11-23T01:38:39;1.80;99.90
10472;DHT22;5283;48.876;8.962;2022-11-23T01:41:07;1.70;99.90
10472;DHT22;5283;48.876;8.962;2022-11-23T01:43:34;1.60;99.90
10472;DHT22;5283;48.876;8.962;2022-11-23T01:46:01;1.40;99.90
10472;DHT22;5283;48.876;8.962;2022-11-23T01:48:43;1.30;99.90
10472;DHT22;5283;48.876;8.962;2022-11-23T01:51:16;1.20;99.90
10472;DHT22;5283;48.876;8.962;2022-11-23T01:53:47;1.20;99.90
10472;DHT22;5283;48.876;8.962;2022-11-23T01:56:17;1.20;99.90
10472;DHT22;5283;48.876;8.962;2022-11-23T01:58:47;1.10;99.90
10472;DHT22;5283;48.876;8.962;2022-11-23T02:01:15;1.00;99.90
10472;DHT22;5283;48.876;8.962;2022-11-23T02:03:43;0.90;99.90
10472;DHT22;5283;48.876;8.962;2022-11-23T02:06:14;0.80;99.90
10472;DHT22;5283;48.876;8.962;2022-11-23T02:08:42;0.80;99.90
10472;DHT22;5283;48.876;8.962;2022-11-23T02:11:10;0.90;99.90
10472;DHT22;5283;48.876;8.962;2022-11-23T02:13:38;0.90;99.90
10472;DHT22;5283;48.876;8.962;2022-11-23T02:16:05;0.80;99.90
10472;DHT22;5283;48.876;8.962;2022-11-23T02:18:33;0.80;99.90
10472;DHT22;5283;48.876;8.962;2022-11-23T02:21:02;0.70;99.90
10472;DHT22;5283;48.876;8.962;2022-11-23T02:26:12;0.50;99.90
10472;DHT22;5283;48.876;8.962;2022-11-23T02:28:50;0.40;99.90
10472;DHT22;5283;48.876;8.962;2022-11-23T02:31:18;0.40;99.90
10472;DHT22;5283;48.876;8.962;2022-11-23T02:33:45;0.40;99.90
10472;DHT22;5283;48.876;8.962;2022-11-23T02:36:33;0.50;99.90
10472;DHT22;5283;48.876;8.962;2022-11-23T02:39:11;0.50;99.90
10472;DHT22;5283;48.876;8.962;2022-11-23T02:41:45;0.60;99.90
10472;DHT22;5283;48.876;8.962;2022-11-23T02:47:08;0.50;99.90
10472;DHT22;5283;48.876;8.962;2022-11-23T02:49:36;0.40;99.90
10472;DHT22;5283;48.876;8.962;2022-11-23T02:52:02;0.40;99.90
10472;DHT22;5283;48.876;8.962;2022-11-23T02:54:29;0.40;99.90
10472;DHT22;5283;48.876;8.962;2022-11-23T02:56:56;0.30;99.90
10472;DHT22;5283;48.876;8.962;2022-11-23T02:59:23;0.30;99.90
10472;DHT22;5283;48.876;8.962;2022-11-23T03:01:50;0.40;99.90
10472;DHT22;5283;48.876;8.962;2022-11-23T03:04:16;0.50;99.90
10472;DHT22;5283;48.876;8.962;2022-11-23T03:06:44;0.50;99.90
10472;DHT22;5283;48.876;8.962;2022-11-23T03:09:11;0.60;99.90
10472;DHT22;5283;48.876;8.962;2022-11-23T03:11:37;0.70;99.90
10472;DHT22;5283;48.876;8.962;2022-11-23T03:14:04;0.70;99.90
10472;DHT22;5283;48.876;8.962;2022-11-23T03:16:31;0.70;99.90
10472;DHT22;5283;48.876;8.962;2022-11-23T03:18:59;0.70;99.90
10472;DHT22;5283;48.876;8.962;2022-11-23T03:21:26;0.70;99.90
10472;DHT22;5283;48.876;8.962;2022-11-23T03:23:54;0.60;99.90
10472;DHT22;5283;48.876;8.962;2022-11-23T03:26:20;0.60;99.90
10472;DHT22;5283;48.876;8.962;2022-11-23T03:28:47;0.60;99.90
10472;DHT22;5283;48.876;8.962;2022-11-23T03:31:14;0.70;99.90
10472;DHT22;5283;48.876;8.962;2022-11-23T03:33:41;1.10;99.90
10472;DHT22;5283;48.876;8.962;2022-11-23T03:36:07;1.20;99.90
10472;DHT22;5283;48.876;8.962;2022-11-23T03:38:34;1.20;99.90
10472;DHT22;5283;48.876;8.962;2022-11-23T03:41:01;1.20;99.90
10472;DHT22;5283;48.876;8.962;2022-11-23T03:43:27;1.30;99.90
10472;DHT22;5283;48.876;8.962;2022-11-23T03:45:54;1.30;99.90
10472;DHT22;5283;48.876;8.962;2022-11-23T03:48:21;1.40;99.90
10472;DHT22;5283;48.876;8.962;2022-11-23T03:50:48;1.50;99.90
10472;DHT22;5283;48.876;8.962;2022-11-23T03:53:14;1.60;99.90
10472;DHT22;5283;48.876;8.962;2022-11-23T03:55:41;1.70;99.90
10472;DHT22;5283;48.876;8.962;2022-11-23T03:58:08;1.90;99.90
10472;DHT22;5283;48.876;8.962;2022-11-23T04:00:34;1.90;99.90
10472;DHT22;5283;48.876;8.962;2022-11-23T04:03:01;2.00;99.90
10472;DHT22;5283;48.876;8.962;2022-11-23T04:05:28;2.00;99.90
10472;DHT22;5283;48.876;8.962;2022-11-23T04:07:54;2.00;99.90
10472;DHT22;5283;48.876;8.962;2022-11-23T04:10:21;2.00;99.90
10472;DHT22;5283;48.876;8.962;2022-11-23T04:12:52;2.00;99.90
10472;DHT22;5283;48.876;8.962;2022-11-23T04:15:19;2.00;99.90
10472;DHT22;5283;48.876;8.962;2022-11-23T04:17:46;1.90;99.90
10472;DHT22;5283;48.876;8.962;2022-11-23T04:20:13;1.80;99.90
10472;DHT22;5283;48.876;8.962;2022-11-23T04:22:40;1.60;99.90
10472;DHT22;5283;48.876;8.962;2022-11-23T04:25:08;1.60;99.90
10472;DHT22;5283;48.876;8.962;2022-11-23T04:27:34;1.50;99.90
10472;DHT22;5283;48.876;8.962;2022-11-23T04:30:01;1.60;99.90
10472;DHT22;5283;48.876;8.962;2022-11-23T04:32:28;1.50;99.90
10472;DHT22;5283;48.876;8.962;2022-11-23T04:34:55;1.40;99.90
10472;DHT22;5283;48.876;8.962;2022-11-23T04:37:21;1.20;99.90
10472;DHT22;5283;48.876;8.962;2022-11-23T04:39:48;1.20;99.90
10472;DHT22;5283;48.876;8.962;2022-11-23T04:42:15;1.20;99.90
10472;DHT22;5283;48.876;8.962;2022-11-23T04:44:42;1.20;99.90
10472;DHT22;5283;48.876;8.962;2022-11-23T04:47:09;1.30;99.90
10472;DHT22;5283;48.876;8.962;2022-11-23T04:49:36;1.30;99.90
10472;DHT22;5283;48.876;8.962;2022-11-23T04:52:03;1.40;99.90
10472;DHT22;5283;48.876;8.962;2022-11-23T04:54:30;1.50;99.90
10472;DHT22;5283;48.876;8.962;2022-11-23T04:56:56;1.60;99.90
10472;DHT22;5283;48.876;8.962;2022-11-23T04:59:23;1.70;99.90
10472;DHT22;5283;48.876;8.962;2022-11-23T05:01:50;1.80;99.90
10472;DHT22;5283;48.876;8.962;2022-11-23T05:04:18;2.00;99.90
10472;DHT22;5283;48.876;8.962;2022-11-23T05:06:45;2.10;99.90
10472;DHT22;5283;48.876;8.962;2022-11-23T05:09:12;2.20;99.90
10472;DHT22;5283;48.876;8.962;2022-11-23T05:11:39;2.30;99.90
10472;DHT22;5283;48.876;8.962;2022-11-23T05:14:06;2.40;99.90
10472;DHT22;5283;48.876;8.962;2022-11-23T05:16:33;2.50;99.90
10472;DHT22;5283;48.876;8.962;2022-11-23T05:19:00;2.60;99.90
10472;DHT22;5283;48.876;8.962;2022-11-23T05:21:27;2.70;99.90
10472;DHT22;5283;48.876;8.962;2022-11-23T05:23:54;2.70;99.90
10472;DHT22;5283;48.876;8.962;2022-11-23T05:26:20;2.70;99.90
10472;DHT22;5283;48.876;8.962;2022-11-23T05:28:47;2.70;99.90
10472;DHT22;5283;48.876;8.962;2022-11-23T05:31:14;2.90;99.90
10472;DHT22;5283;48.876;8.962;2022-11-23T05:33:47;2.90;99.90
10472;DHT22;5283;48.876;8.962;2022-11-23T05:36:14;3.00;99.90
10472;DHT22;5283;48.876;8.962;2022-11-23T05:38:41;3.10;99.90
10472;DHT22;5283;48.876;8.962;2022-11-23T05:41:08;3.10;99.90
10472;DHT22;5283;48.876;8.962;2022-11-23T05:43:34;3.20;99.90
10472;DHT22;5283;48.876;8.962;2022-11-23T05:46:02;3.20;99.90
10472;DHT22;5283;48.876;8.962;2022-11-23T05:48:28;3.30;99.90
10472;DHT22;5283;48.876;8.962;2022-11-23T05:50:55;3.40;99.90
10472;DHT22;5283;48.876;8.962;2022-11-23T05:53:25;3.50;99.90
10472;DHT22;5283;48.876;8.962;2022-11-23T05:55:51;3.60;99.90
10472;DHT22;5283;48.876;8.962;2022-11-23T05:58:18;3.70;99.90
10472;DHT22;5283;48.876;8.962;2022-11-23T06:00:45;3.70;99.90
10472;DHT22;5283;48.876;8.962;2022-11-23T06:03:12;3.80;99.90
10472;DHT22;5283;48.876;8.962;2022-11-23T06:05:39;3.90;99.90
10472;DHT22;5283;48.876;8.962;2022-11-23T06:08:05;4.00;99.90
10472;DHT22;5283;48.876;8.962;2022-11-23T06:10:32;4.00;99.90
10472;DHT22;5283;48.876;8.962;2022-11-23T06:13:03;4.10;99.90
10472;DHT22;5283;48.876;8.962;2022-11-23T06:15:30;4.20;99.90
10472;DHT22;5283;48.876;8.962;2022-11-23T06:18:01;4.20;99.90
10472;DHT22;5283;48.876;8.962;2022-11-23T06:20:28;4.20;99.90
10472;DHT22;5283;48.876;8.962;2022-11-23T06:22:55;4.30;99.90
10472;DHT22;5283;48.876;8.962;2022-11-23T06:25:22;4.30;99.90
10472;DHT22;5283;48.876;8.962;2022-11-23T06:27:56;4.40;99.90
10472;DHT22;5283;48.876;8.962;2022-11-23T06:30:24;4.50;99.90
10472;DHT22;5283;48.876;8.962;2022-11-23T06:32:51;4.60;99.90
10472;DHT22;5283;48.876;8.962;2022-11-23T06:35:18;4.60;99.90
10472;DHT22;5283;48.876;8.962;2022-11-23T06:37:47;4.70;99.90
10472;DHT22;5283;48.876;8.962;2022-11-23T06:40:14;4.70;99.90
10472;DHT22;5283;48.876;8.962;2022-11-23T06:42:41;4.70;99.90
10472;DHT22;5283;48.876;8.962;2022-11-23T06:45:08;4.70;99.90
10472;DHT22;5283;48.876;8.962;2022-11-23T06:47:35;4.70;99.90
10472;DHT22;5283;48.876;8.962;2022-11-23T06:50:02;4.70;99.90
10472;DHT22;5283;48.876;8.962;2022-11-23T06:52:29;4.80;99.90
10472;DHT22;5283;48.876;8.962;2022-11-23T06:54:55;4.80;99.90
10472;DHT22;5283;48.876;8.962;2022-11-23T06:57:22;4.80;99.90
10472;DHT22;5283;48.876;8.962;2022-11-23T06:59:49;4.90;99.90
10472;DHT22;5283;48.876;8.962;2022-11-23T07:02:16;4.90;99.90
10472;DHT22;5283;48.876;8.962;2022-11-23T07:04:42;4.90;99.90
10472;DHT22;5283;48.876;8.962;2022-11-23T07:07:09;4.90;99.90
10472;DHT22;5283;48.876;8.962;2022-11-23T07:09:36;4.90;99.90
10472;DHT22;5283;48.876;8.962;2022-11-23T07:12:03;5.00;99.90
10472;DHT22;5283;48.876;8.962;2022-11-23T07:14:30;5.10;99.90
10472;DHT22;5283;48.876;8.962;2022-11-23T07:16:57;5.10;99.90
10472;DHT22;5283;48.876;8.962;2022-11-23T07:19:23;5.20;99.90
10472;DHT22;5283;48.876;8.962;2022-11-23T07:21:50;5.20;99.90
10472;DHT22;5283;48.876;8.962;2022-11-23T07:24:17;5.20;99.90
10472;DHT22;5283;48.876;8.962;2022-11-23T07:26:43;5.40;99.90
10472;DHT22;5283;48.876;8.962;2022-11-23T07:29:10;5.50;99.90
10472;DHT22;5283;48.876;8.962;2022-11-23T07:31:37;5.50;99.90
10472;DHT22;5283;48.876;8.962;2022-11-23T07:34:04;5.60;99.90
10472;DHT22;5283;48.876;8.962;2022-11-23T07:36:31;5.70;99.90
10472;DHT22;5283;48.876;8.962;2022-11-23T07:38:58;5.90;99.90
10472;DHT22;5283;48.876;8.962;2022-11-23T07:41:25;6.00;99.90
10472;DHT22;5283;48.876;8.962;2022-11-23T07:43:53;6.00;99.90
10472;DHT22;5283;48.876;8.962;2022-11-23T07:46:20;6.10;99.90
10472;DHT22;5283;48.876;8.962;2022-11-23T07:48:47;6.20;99.90
10472;DHT22;5283;48.876;8.962;2022-11-23T07:51:14;6.30;99.90
10472;DHT22;5283;48.876;8.962;2022-11-23T07:53:41;6.40;99.90
10472;DHT22;5283;48.876;8.962;2022-11-23T07:56:08;6.40;99.90
10472;DHT22;5283;48.876;8.962;2022-11-23T07:58:35;6.50;99.90
10472;DHT22;5283;48.876;8.962;2022-11-23T08:01:02;6.60;99.90
10472;DHT22;5283;48.876;8.962;2022-11-23T08:03:29;6.60;99.90
10472;DHT22;5283;48.876;8.962;2022-11-23T08:05:56;6.70;99.90
10472;DHT22;5283;48.876;8.962;2022-11-23T08:08:23;6.70;99.90
10472;DHT22;5283;48.876;8.962;2022-11-23T08:10:50;6.70;99.90
10472;DHT22;5283;48.876;8.962;2022-11-23T08:13:18;6.70;99.90
10472;DHT22;5283;48.876;8.962;2022-11-23T08:15:45;6.70;99.90
10472;DHT22;5283;48.876;8.962;2022-11-23T08:18:15;6.80;99.90
10472;DHT22;5283;48.876;8.962;2022-11-23T08:20:42;6.80;99.90
10472;DHT22;5283;48.876;8.962;2022-11-23T08:23:09;6.80;99.90
10472;DHT22;5283;48.876;8.962;2022-11-23T08:25:36;6.90;99.90
10472;DHT22;5283;48.876;8.962;2022-11-23T08:28:03;6.90;99.90
10472;DHT22;5283;48.876;8.962;2022-11-23T08:30:31;6.90;99.90
10472;DHT22;5283;48.876;8.962;2022-11-23T08:32:58;6.90;99.90
10472;DHT22;5283;48.876;8.962;2022-11-23T08:35:25;7.00;99.90
10472;DHT22;5283;48.876;8.962;2022-11-23T08:37:51;7.00;99.90
10472;DHT22;5283;48.876;8.962;2022-11-23T08:40:18;7.20;99.90
10472;DHT22;5283;48.876;8.962;2022-11-23T08:42:49;7.20;99.90
10472;DHT22;5283;48.876;8.962;2022-11-23T08:45:16;7.40;99.90
10472;DHT22;5283;48.876;8.962;2022-11-23T08:47:42;7.50;99.90
10472;DHT22;5283;48.876;8.962;2022-11-23T08:50:09;7.50;99.90
10472;DHT22;5283;48.876;8.962;2022-11-23T08:52:36;7.60;99.90
10472;DHT22;5283;48.876;8.962;2022-11-23T08:55:03;7.50;99.90
10472;DHT22;5283;48.876;8.962;2022-11-23T08:57:30;7.40;99.90
10472;DHT22;5283;48.876;8.962;2022-11-23T08:59:56;7.30;99.90
10472;DHT22;5283;48.876;8.962;2022-11-23T09:02:23;7.40;99.90
10472;DHT22;5283;48.876;8.962;2022-11-23T09:04:50;7.30;99.90
10472;DHT22;5283;48.876;8.962;2022-11-23T09:07:17;7.20;99.90
10472;DHT22;5283;48.876;8.962;2022-11-23T09:09:43;7.20;99.90
10472;DHT22;5283;48.876;8.962;2022-11-23T09:12:10;7.10;99.90
10472;DHT22;5283;48.876;8.962;2022-11-23T09:14:37;7.10;99.90
10472;DHT22;5283;48.876;8.962;2022-11-23T09:17:04;7.00;99.90
10472;DHT22;5283;48.876;8.962;2022-11-23T09:19:30;7.00;99.90
10472;DHT22;5283;48.876;8.962;2022-11-23T09:21:57;7.00;99.90
10472;DHT22;5283;48.876;8.962;2022-11-23T09:24:24;7.00;99.90
10472;DHT22;5283;48.876;8.962;2022-11-23T09:26:53;7.00;99.90
10472;DHT22;5283;48.876;8.962;2022-11-23T09:29:20;7.00;99.90
10472;DHT22;5283;48.876;8.962;2022-11-23T09:31:47;7.00;99.90
10472;DHT22;5283;48.876;8.962;2022-11-23T09:34:14;7.00;99.90
10472;DHT22;5283;48.876;8.962;2022-11-23T09:36:40;7.00;99.90
10472;DHT22;5283;48.876;8.962;2022-11-23T09:39:07;7.00;99.90
10472;DHT22;5283;48.876;8.962;2022-11-23T09:50:16;7.20;99.90
10472;DHT22;5283;48.876;8.962;2022-11-23T09:52:46;7.20;99.90
10472;DHT22;5283;48.876;8.962;2022-11-23T09:55:35;7.30;99.90
10472;DHT22;5283;48.876;8.962;2022-11-23T09:58:04;7.30;99.90
10472;DHT22;5283;48.876;8.962;2022-11-23T10:00:38;7.40;99.90
10472;DHT22;5283;48.876;8.962;2022-11-23T10:03:15;7.50;99.90
10472;DHT22;5283;48.876;8.962;2022-11-23T10:05:49;7.50;99.90
10472;DHT22;5283;48.876;8.962;2022-11-23T10:08:38;7.50;99.90
10472;DHT22;5283;48.876;8.962;2022-11-23T10:11:23;7.50;99.90
10472;DHT22;5283;48.876;8.962;2022-11-23T10:14:18;7.60;99.90
10472;DHT22;5283;48.876;8.962;2022-11-23T10:22:59;7.70;99.90
10472;DHT22;5283;48.876;8.962;2022-11-23T10:25:47;7.70;99.90
10472;DHT22;5283;48.876;8.962;2022-11-23T10:28:18;7.70;99.90
10472;DHT22;5283;48.876;8.962;2022-11-23T10:31:34;7.80;99.90
10472;DHT22;5283;48.876;8.962;2022-11-23T10:33:49;7.80;99.90
10472;DHT22;5283;48.876;8.962;2022-11-23T10:36:19;7.80;99.90
10472;DHT22;5283;48.876;8.962;2022-11-23T10:38:52;7.80;99.90
10472;DHT22;5283;48.876;8.962;2022-11-23T10:41:20;7.80;99.90
10472;DHT22;5283;48.876;8.962;2022-11-23T10:44:03;7.80;99.90
10472;DHT22;5283;48.876;8.962;2022-11-23T10:46:38;7.80;99.90
10472;DHT22;5283;48.876;8.962;2022-11-23T10:49:21;7.80;99.90
10472;DHT22;5283;48.876;8.962;2022-11-23T10:51:52;7.90;99.90
10472;DHT22;5283;48.876;8.962;2022-11-23T10:54:48;8.00;99.90
10472;DHT22;5283;48.876;8.962;2022-11-23T10:57:43;8.00;99.90
10472;DHT22;5283;48.876;8.962;2022-11-23T11:02:48;8.10;99.90
10472;DHT22;5283;48.876;8.962;2022-11-23T11:05:36;8.20;99.90
10472;DHT22;5283;48.876;8.962;2022-11-23T11:08:28;8.20;99.90
10472;DHT22;5283;48.876;8.962;2022-11-23T11:11:05;8.20;99.90
10472;DHT22;5283;48.876;8.962;2022-11-23T11:13:44;8.20;99.90
10472;DHT22;5283;48.876;8.962;2022-11-23T11:18:52;8.30;99.90
10472;DHT22;5283;48.876;8.962;2022-11-23T11:21:21;8.30;99.90
10472;DHT22;5283;48.876;8.962;2022-11-23T11:24:02;8.30;99.90
10472;DHT22;5283;48.876;8.962;2022-11-23T11:26:31;8.30;99.90
10472;DHT22;5283;48.876;8.962;2022-11-23T11:29:03;8.40;99.90
10472;DHT22;5283;48.876;8.962;2022-11-23T11:40:16;8.40;99.90
10472;DHT22;5283;48.876;8.962;2022-11-23T11:42:26;8.40;99.90
10472;DHT22;5283;48.876;8.962;2022-11-23T11:44:56;8.50;99.90
10472;DHT22;5283;48.876;8.962;2022-11-23T11:47:35;8.50;99.90
10472;DHT22;5283;48.876;8.962;2022-11-23T11:50:48;8.60;99.90
10472;DHT22;5283;48.876;8.962;2022-11-23T11:53:14;8.60;99.90
10472;DHT22;5283;48.876;8.962;2022-11-23T11:56:00;8.50;99.90
10472;DHT22;5283;48.876;8.962;2022-11-23T11:58:32;8.50;99.90
10472;DHT22;5283;48.876;8.962;2022-11-23T12:01:12;8.50;99.90
10472;DHT22;5283;48.876;8.962;2022-11-23T12:03:55;8.50;99.90
10472;DHT22;5283;48.876;8.962;2022-11-23T12:06:30;8.60;99.90
10472;DHT22;5283;48.876;8.962;2022-11-23T12:09:22;8.60;99.90
10472;DHT22;5283;48.876;8.962;2022-11-23T12:11:49;8.70;99.90
10472;DHT22;5283;48.876;8.962;2022-11-23T12:14:16;8.80;99.90
10472;DHT22;5283;48.876;8.962;2022-11-23T12:16:57;8.80;99.90
10472;DHT22;5283;48.876;8.962;2022-11-23T12:22:54;8.90;99.90
10472;DHT22;5283;48.876;8.962;2022-11-23T12:25:32;9.00;99.90
10472;DHT22;5283;48.876;8.962;2022-11-23T12:31:37;8.90;99.90
10472;DHT22;5283;48.876;8.962;2022-11-23T12:42:48;8.90;99.90
10472;DHT22;5283;48.876;8.962;2022-11-23T12:51:13;9.20;99.90
10472;DHT22;5283;48.876;8.962;2022-11-23T12:56:42;9.20;99.90
10472;DHT22;5283;48.876;8.962;2022-11-23T12:59:13;9.20;99.90
10472;DHT22;5283;48.876;8.962;2022-11-23T13:01:56;9.20;99.90
10472;DHT22;5283;48.876;8.962;2022-11-23T13:04:43;9.20;99.90
10472;DHT22;5283;48.876;8.962;2022-11-23T13:12:44;9.10;99.90
10472;DHT22;5283;48.876;8.962;2022-11-23T13:15:16;9.10;99.90
10472;DHT22;5283;48.876;8.962;2022-11-23T13:17:57;9.20;99.90
10472;DHT22;5283;48.876;8.962;2022-11-23T13:23:37;9.20;99.90
10472;DHT22;5283;48.876;8.962;2022-11-23T13:26:34;9.20;99.90
10472;DHT22;5283;48.876;8.962;2022-11-23T13:40:33;9.10;99.90
10472;DHT22;5283;48.876;8.962;2022-11-23T13:43:02;9.10;99.90
10472;DHT22;5283;48.876;8.962;2022-11-23T13:45:33;9.20;99.90
10472;DHT22;5283;48.876;8.962;2022-11-23T13:48:04;9.20;99.90
10472;DHT22;5283;48.876;8.962;2022-11-23T13:50:33;9.30;99.90
10472;DHT22;5283;48.876;8.962;2022-11-23T13:53:01;9.30;99.90
10472;DHT22;5283;48.876;8.962;2022-11-23T13:55:38;9.20;99.90
10472;DHT22;5283;48.876;8.962;2022-11-23T14:00:57;9.10;99.90
10472;DHT22;5283;48.876;8.962;2022-11-23T14:04:18;9.10;99.90
10472;DHT22;5283;48.876;8.962;2022-11-23T14:06:47;8.90;99.90
10472;DHT22;5283;48.876;8.962;2022-11-23T14:09:38;8.80;99.90
10472;DHT22;5283;48.876;8.962;2022-11-23T14:12:16;8.80;99.90
10472;DHT22;5283;48.876;8.962;2022-11-23T14:14:48;8.70;99.90
10472;DHT22;5283;48.876;8.962;2022-11-23T14:20:18;8.50;99.90
10472;DHT22;5283;48.876;8.962;2022-11-23T14:26:06;8.60;99.90
10472;DHT22;5283;48.876;8.962;2022-11-23T14:37:02;8.60;99.90
10472;DHT22;5283;48.876;8.962;2022-11-23T14:39:56;8.60;99.90
10472;DHT22;5283;48.876;8.962;2022-11-23T14:42:28;8.80;99.90
10472;DHT22;5283;48.876;8.962;2022-11-23T14:45:00;8.70;99.90
10472;DHT22;5283;48.876;8.962;2022-11-23T14:47:29;8.60;99.90
10472;DHT22;5283;48.876;8.962;2022-11-23T14:49:57;8.30;99.90
10472;DHT22;5283;48.876;8.962;2022-11-23T14:52:27;8.10;99.90
10472;DHT22;5283;48.876;8.962;2022-11-23T14:54:56;7.90;99.90
10472;DHT22;5283;48.876;8.962;2022-11-23T14:57:27;7.60;99.90
10472;DHT22;5283;48.876;8.962;2022-11-23T14:59:59;7.50;99.90
10472;DHT22;5283;48.876;8.962;2022-11-23T15:02:34;7.30;99.90
10472;DHT22;5283;48.876;8.962;2022-11-23T15:05:20;7.20;99.90
10472;DHT22;5283;48.876;8.962;2022-11-23T15:08:03;7.10;99.90
10472;DHT22;5283;48.876;8.962;2022-11-23T15:10:40;6.90;99.90
10472;DHT22;5283;48.876;8.962;2022-11-23T15:13:22;6.70;99.90
10472;DHT22;5283;48.876;8.962;2022-11-23T15:15:52;6.50;99.90
10472;DHT22;5283;48.876;8.962;2022-11-23T15:20:58;6.30;99.90
10472;DHT22;5283;48.876;8.962;2022-11-23T15:23:33;6.20;99.90
10472;DHT22;5283;48.876;8.962;2022-11-23T15:26:10;6.00;99.90
10472;DHT22;5283;48.876;8.962;2022-11-23T15:28:46;5.70;99.90
10472;DHT22;5283;48.876;8.962;2022-11-23T15:33:51;5.40;99.90
10472;DHT22;5283;48.876;8.962;2022-11-23T15:36:30;5.40;99.90
10472;DHT22;5283;48.876;8.962;2022-11-23T15:39:00;5.40;99.90
10472;DHT22;5283;48.876;8.962;2022-11-23T15:41:29;5.30;99.90
10472;DHT22;5283;48.876;8.962;2022-11-23T15:44:00;5.20;99.90
10472;DHT22;5283;48.876;8.962;2022-11-23T15:46:33;5.10;99.90
10472;DHT22;5283;48.876;8.962;2022-11-23T15:49:03;5.10;99.90
10472;DHT22;5283;48.876;8.962;2022-11-23T15:51:35;5.10;99.90
10472;DHT22;5283;48.876;8.962;2022-11-23T15:54:03;5.10;99.90
10472;DHT22;5283;48.876;8.962;2022-11-23T15:56:33;5.10;99.90
10472;DHT22;5283;48.876;8.962;2022-11-23T15:59:02;5.10;99.90
10472;DHT22;5283;48.876;8.962;2022-11-23T16:01:30;5.10;99.90
10472;DHT22;5283;48.876;8.962;2022-11-23T16:03:58;5.20;99.90
10472;DHT22;5283;48.876;8.962;2022-11-23T16:06:41;5.20;99.90
10472;DHT22;5283;48.876;8.962;2022-11-23T16:09:37;5.30;99.90
10472;DHT22;5283;48.876;8.962;2022-11-23T16:12:28;5.30;99.90
10472;DHT22;5283;48.876;8.962;2022-11-23T16:18:16;5.30;99.90
10472;DHT22;5283;48.876;8.962;2022-11-23T16:20:55;5.30;99.90
10472;DHT22;5283;48.876;8.962;2022-11-23T16:23:27;5.40;99.90
10472;DHT22;5283;48.876;8.962;2022-11-23T16:26:03;5.40;99.90
10472;DHT22;5283;48.876;8.962;2022-11-23T16:28:32;5.50;99.90
10472;DHT22;5283;48.876;8.962;2022-11-23T16:31:00;5.50;99.90
10472;DHT22;5283;48.876;8.962;2022-11-23T16:33:27;5.50;99.90
10472;DHT22;5283;48.876;8.962;2022-11-23T16:35:55;5.60;99.90
10472;DHT22;5283;48.876;8.962;2022-11-23T16:38:23;5.60;99.90
10472;DHT22;5283;48.876;8.962;2022-11-23T16:40:50;5.70;99.90
10472;DHT22;5283;48.876;8.962;2022-11-23T16:43:17;5.70;99.90
10472;DHT22;5283;48.876;8.962;2022-11-23T16:45:46;5.70;99.90
10472;DHT22;5283;48.876;8.962;2022-11-23T16:48:36;5.60;99.90
10472;DHT22;5283;48.876;8.962;2022-11-23T16:51:03;5.60;99.90
10472;DHT22;5283;48.876;8.962;2022-11-23T16:53:31;5.60;99.90
10472;DHT22;5283;48.876;8.962;2022-11-23T16:56:26;5.70;99.90
10472;DHT22;5283;48.876;8.962;2022-11-23T16:58:54;5.70;99.90
10472;DHT22;5283;48.876;8.962;2022-11-23T17:01:23;5.70;99.90
10472;DHT22;5283;48.876;8.962;2022-11-23T17:03:50;5.60;99.90
10472;DHT22;5283;48.876;8.962;2022-11-23T17:06:18;5.60;99.90
10472;DHT22;5283;48.876;8.962;2022-11-23T17:08:50;5.60;99.90
10472;DHT22;5283;48.876;8.962;2022-11-23T17:11:25;5.60;99.90
10472;DHT22;5283;48.876;8.962;2022-11-23T17:13:54;5.60;99.90
10472;DHT22;5283;48.876;8.962;2022-11-23T17:16:22;5.50;99.90
10472;DHT22;5283;48.876;8.962;2022-11-23T17:18:50;5.50;99.90
10472;DHT22;5283;48.876;8.962;2022-11-23T17:21:17;5.50;99.90
10472;DHT22;5283;48.876;8.962;2022-11-23T17:23:44;5.50;99.90
10472;DHT22;5283;48.876;8.962;2022-11-23T17:26:33;5.60;99.90
10472;DHT22;5283;48.876;8.962;2022-11-23T17:29:04;5.60;99.90
10472;DHT22;5283;48.876;8.962;2022-11-23T17:31:31;5.60;99.90
10472;DHT22;5283;48.876;8.962;2022-11-23T17:33:58;5.60;99.90
10472;DHT22;5283;48.876;8.962;2022-11-23T17:36:25;5.60;99.90
10472;DHT22;5283;48.876;8.962;2022-11-23T17:38:52;5.60;99.90
10472;DHT22;5283;48.876;8.962;2022-11-23T17:41:19;5.60;99.90
10472;DHT22;5283;48.876;8.962;2022-11-23T17:43:46;5.60;99.90
10472;DHT22;5283;48.876;8.962;2022-11-23T17:46:22;5.60;99.90
10472;DHT22;5283;48.876;8.962;2022-11-23T17:48:55;5.50;99.90
10472;DHT22;5283;48.876;8.962;2022-11-23T17:51:22;5.50;99.90
10472;DHT22;5283;48.876;8.962;2022-11-23T17:53:49;5.60;99.90
10472;DHT22;5283;48.876;8.962;2022-11-23T17:56:19;5.60;99.90
10472;DHT22;5283;48.876;8.962;2022-11-23T17:58:47;5.50;99.90
10472;DHT22;5283;48.876;8.962;2022-11-23T18:01:16;5.50;99.90
10472;DHT22;5283;48.876;8.962;2022-11-23T18:03:43;5.50;99.90
10472;DHT22;5283;48.876;8.962;2022-11-23T18:06:16;5.50;99.90
10472;DHT22;5283;48.876;8.962;2022-11-23T18:08:44;5.50;99.90
10472;DHT22;5283;48.876;8.962;2022-11-23T18:11:11;5.50;99.90